createdAt,value
2022-11-29T00:00:03.257Z,14.65
2022-11-29T00:02:45.497Z,14.75
2022-11-29T00:05:15.140Z,15.20
2022-11-29T00:07:44.820Z,15.10
2022-11-29T00:10:14.751Z,14.77
2022-11-29T00:12:44.380Z,14.65
2022-11-29T00:15:14.325Z,14.32
2022-11-29T00:17:46.480Z,15.30
2022-11-29T00:20:16.382Z,14.48
2022-11-29T00:22:45.943Z,14.75
2022-11-29T00:25:15.483Z,15.63
2022-11-29T00:27:45.020Z,15.35
2022-11-29T00:30:15.731Z,16.17
2022-11-29T00:32:48.193Z,14.20
2022-11-29T00:35:17.975Z,14.20
2022-11-29T00:37:47.535Z,15.40
2022-11-29T00:40:17.167Z,15.45
2022-11-29T00:42:46.723Z,15.52
2022-11-29T00:45:16.280Z,15.88
2022-11-29T00:47:48.444Z,15.48
2022-11-29T00:50:18.069Z,15.05
2022-11-29T00:52:47.685Z,16.48
2022-11-29T00:55:17.766Z,15.65
2022-11-29T00:57:47.374Z,16.15
2022-11-29T01:00:18.372Z,16.58
2022-11-29T01:02:50.766Z,17.13
2022-11-29T01:05:20.585Z,16.85
2022-11-29T01:07:50.245Z,16.20
2022-11-29T01:10:19.906Z,15.88
2022-11-29T01:12:49.456Z,16.25
2022-11-29T01:15:19.203Z,17.25
2022-11-29T01:17:51.524Z,17.20
2022-11-29T01:20:21.133Z,17.17
2022-11-29T01:22:51.040Z,16.75
2022-11-29T01:25:21.367Z,16.38
2022-11-29T01:27:50.935Z,16.90
2022-11-29T01:30:20.667Z,17.10
2022-11-29T01:32:52.815Z,16.50
2022-11-29T01:35:22.356Z,17.65
2022-11-29T01:37:51.901Z,15.93
2022-11-29T01:40:21.551Z,17.75
2022-11-29T01:42:51.256Z,18.00
2022-11-29T01:45:27.423Z,18.17
2022-11-29T01:48:00.659Z,18.77
2022-11-29T01:50:30.249Z,19.37
2022-11-29T01:53:00.619Z,18.60
2022-11-29T01:55:30.487Z,19.48
2022-11-29T01:58:01.391Z,20.23
2022-11-29T02:00:30.964Z,20.02
2022-11-29T02:03:07.053Z,21.30
2022-11-29T02:05:36.672Z,20.30
2022-11-29T02:08:07.031Z,19.75
2022-11-29T02:10:46.310Z,21.20
2022-11-29T02:13:24.838Z,21.10
2022-11-29T02:15:59.235Z,20.48
2022-11-29T02:18:45.706Z,20.80
2022-11-29T02:21:33.679Z,20.23
2022-11-29T02:24:17.077Z,20.00
2022-11-29T02:27:01.839Z,19.50
2022-11-29T02:29:40.573Z,18.67
2022-11-29T02:32:36.902Z,20.90
2022-11-29T02:35:18.361Z,20.85
2022-11-29T02:38:09.274Z,19.80
2022-11-29T02:40:52.384Z,20.75
2022-11-29T02:43:39.567Z,20.55
2022-11-29T02:46:24.646Z,20.58
2022-11-29T02:49:03.638Z,20.90
2022-11-29T02:51:41.305Z,19.80
2022-11-29T02:54:17.041Z,20.13
2022-11-29T02:56:49.492Z,19.33
2022-11-29T02:59:27.792Z,20.60
2022-11-29T03:02:06.242Z,20.30
2022-11-29T03:04:44.198Z,20.23
2022-11-29T03:07:18.236Z,20.40
2022-11-29T03:09:50.519Z,19.48
2022-11-29T03:12:23.715Z,19.33
2022-11-29T03:14:59.195Z,20.00
2022-11-29T03:17:34.959Z,19.38
2022-11-29T03:20:15.744Z,20.52
2022-11-29T03:22:50.564Z,20.58
2022-11-29T03:25:25.586Z,19.95
2022-11-29T03:27:59.619Z,20.73
2022-11-29T03:30:29.217Z,19.60
2022-11-29T03:33:05.535Z,20.20
2022-11-29T03:35:42.709Z,20.73
2022-11-29T03:38:18.017Z,20.15
2022-11-29T03:40:52.858Z,22.27
2022-11-29T03:43:26.505Z,21.25
2022-11-29T03:46:00.516Z,20.83
2022-11-29T03:48:34.254Z,20.98
2022-11-29T03:51:10.311Z,21.05
2022-11-29T03:53:44.859Z,22.17
2022-11-29T03:56:28.868Z,22.77
2022-11-29T03:59:06.219Z,22.98
2022-11-29T04:02:20.110Z,22.52
2022-11-29T04:05:12.078Z,22.33
2022-11-29T04:07:57.038Z,23.27
2022-11-29T04:10:43.329Z,22.88
2022-11-29T04:13:34.271Z,22.33
2022-11-29T04:16:36.307Z,23.95
2022-11-29T04:19:18.603Z,22.83
2022-11-29T04:22:11.841Z,25.45
2022-11-29T04:25:12.109Z,23.52
2022-11-29T04:28:04.035Z,23.33
2022-11-29T04:30:38.023Z,25.83
2022-11-29T04:33:33.050Z,26.98
2022-11-29T04:36:29.601Z,25.13
2022-11-29T04:39:16.688Z,26.17
2022-11-29T04:42:18.879Z,25.55
2022-11-29T04:44:59.832Z,28.10
2022-11-29T04:47:44.990Z,29.33
2022-11-29T04:50:33.667Z,29.17
2022-11-29T04:53:30.871Z,28.05
2022-11-29T04:56:08.444Z,28.05
2022-11-29T04:58:44.239Z,31.02
2022-11-29T05:01:20.594Z,30.67
2022-11-29T05:03:57.054Z,32.20
2022-11-29T05:06:32.417Z,31.98
2022-11-29T05:09:09.659Z,33.42
2022-11-29T05:11:47.522Z,32.00
2022-11-29T05:14:30.083Z,32.83
2022-11-29T05:17:07.015Z,33.17
2022-11-29T05:19:49.640Z,34.10
2022-11-29T05:22:34.784Z,36.05
2022-11-29T05:25:18.979Z,37.08
2022-11-29T05:27:50.881Z,34.97
2022-11-29T05:30:25.519Z,36.80
2022-11-29T05:33:00.260Z,36.63
2022-11-29T05:35:42.988Z,36.53
2022-11-29T05:38:26.753Z,36.83
2022-11-29T05:41:06.050Z,35.63
2022-11-29T05:43:48.421Z,36.85
2022-11-29T05:46:24.993Z,36.42
2022-11-29T05:49:01.789Z,40.13
2022-11-29T05:51:40.763Z,35.35
2022-11-29T05:54:17.421Z,31.85
2022-11-29T05:56:52.200Z,30.48
2022-11-29T05:59:23.966Z,29.27
2022-11-29T06:02:00.817Z,30.88
2022-11-29T06:04:36.748Z,29.42
2022-11-29T06:07:11.625Z,28.35
2022-11-29T06:09:44.260Z,26.63
2022-11-29T06:12:21.023Z,24.83
2022-11-29T06:15:31.024Z,26.65
2022-11-29T06:18:17.262Z,25.27
2022-11-29T06:20:55.631Z,24.67
2022-11-29T06:23:57.863Z,24.95
2022-11-29T06:26:47.592Z,23.05
2022-11-29T06:29:26.560Z,24.55
2022-11-29T06:32:00.092Z,24.05
2022-11-29T06:34:36.529Z,24.63
2022-11-29T06:37:08.568Z,23.80
2022-11-29T06:39:38.875Z,24.85
2022-11-29T06:42:08.531Z,25.35
2022-11-29T06:44:38.706Z,25.15
2022-11-29T06:47:10.431Z,24.58
2022-11-29T06:49:49.264Z,25.63
2022-11-29T06:52:27.466Z,25.52
2022-11-29T06:55:13.186Z,24.92
2022-11-29T06:57:51.704Z,23.55
2022-11-29T07:00:25.678Z,21.73
2022-11-29T07:03:28.936Z,22.58
2022-11-29T07:06:01.676Z,18.63
2022-11-29T07:08:31.912Z,17.67
2022-11-29T07:11:02.653Z,21.30
2022-11-29T07:13:32.907Z,20.48
2022-11-29T07:16:07.962Z,17.23
2022-11-29T07:18:45.534Z,21.95
2022-11-29T07:21:24.348Z,15.82
2022-11-29T07:23:58.759Z,17.95
2022-11-29T07:26:34.581Z,19.25
2022-11-29T07:29:14.131Z,15.43
2022-11-29T07:31:51.387Z,17.08
2022-11-29T07:34:26.312Z,19.45
2022-11-29T07:37:06.493Z,18.38
2022-11-29T07:39:44.893Z,16.00
2022-11-29T07:42:19.147Z,14.38
2022-11-29T07:44:57.788Z,15.48
2022-11-29T07:47:31.263Z,15.57
2022-11-29T07:50:03.976Z,15.00
2022-11-29T07:52:36.630Z,15.55
2022-11-29T07:55:06.737Z,14.13
2022-11-29T07:57:36.998Z,13.98
2022-11-29T08:00:07.925Z,14.13
2022-11-29T08:02:41.478Z,15.15
2022-11-29T08:05:12.318Z,13.18
2022-11-29T08:07:44.601Z,14.60
2022-11-29T08:10:16.303Z,14.38
2022-11-29T08:12:46.820Z,13.82
2022-11-29T08:15:16.824Z,14.07
2022-11-29T08:17:46.474Z,13.98
2022-11-29T08:20:17.445Z,14.77
2022-11-29T08:22:56.866Z,13.93
2022-11-29T08:25:26.557Z,14.57
2022-11-29T08:27:57.263Z,15.00
2022-11-29T08:30:26.927Z,15.43
2022-11-29T08:32:56.473Z,15.10
2022-11-29T08:35:26.524Z,15.73
2022-11-29T08:37:58.718Z,15.68
2022-11-29T08:40:28.296Z,15.43
2022-11-29T08:43:00.134Z,16.27
2022-11-29T08:45:29.821Z,16.63
2022-11-29T08:47:59.404Z,15.60
2022-11-29T08:50:28.949Z,15.70
2022-11-29T08:53:13.648Z,16.25
2022-11-29T08:55:46.560Z,15.40
2022-11-29T08:58:18.174Z,15.75
2022-11-29T09:00:48.627Z,15.55
2022-11-29T09:03:30.688Z,15.80
2022-11-29T09:06:00.386Z,17.13
2022-11-29T09:08:32.515Z,18.60
2022-11-29T09:11:02.119Z,20.05
2022-11-29T09:13:31.660Z,19.27
2022-11-29T09:16:01.284Z,18.92
2022-11-29T09:18:31.059Z,18.65
2022-11-29T09:21:00.855Z,16.23
2022-11-29T09:23:33.020Z,16.77
2022-11-29T09:26:02.612Z,16.60
2022-11-29T09:28:33.351Z,16.98
2022-11-29T09:31:08.015Z,17.10
2022-11-29T09:33:37.674Z,17.75
2022-11-29T09:36:08.446Z,18.00
2022-11-29T09:38:41.429Z,18.80
2022-11-29T09:41:34.274Z,17.10
2022-11-29T09:44:08.838Z,19.20
2022-11-29T09:46:43.863Z,18.08
2022-11-29T09:49:33.499Z,19.75
2022-11-29T09:52:07.571Z,19.08
2022-11-29T09:57:11.234Z,18.48
2022-11-29T09:59:44.888Z,20.25
2022-11-29T10:02:21.720Z,20.27
2022-11-29T10:04:55.179Z,20.23
2022-11-29T10:07:27.628Z,19.00
2022-11-29T10:10:04.402Z,19.63
2022-11-29T10:12:37.799Z,20.48
2022-11-29T10:15:13.936Z,21.23
2022-11-29T10:17:48.054Z,22.00
2022-11-29T10:22:53.595Z,22.27
2022-11-29T10:25:29.330Z,24.23
2022-11-29T10:27:58.994Z,26.88
2022-11-29T10:30:28.573Z,26.40
2022-11-29T10:33:00.188Z,27.70
2022-11-29T10:35:30.590Z,27.98
2022-11-29T10:40:57.563Z,26.27
2022-11-29T10:43:27.250Z,27.40
2022-11-29T10:45:58.923Z,26.33
2022-11-29T10:48:31.784Z,26.63
2022-11-29T10:51:01.706Z,25.77
2022-11-29T10:53:35.886Z,25.58
2022-11-29T10:56:10.396Z,24.90
2022-11-29T10:58:57.356Z,26.30
2022-11-29T11:01:29.147Z,26.23
2022-11-29T11:04:03.240Z,25.73
2022-11-29T11:06:45.993Z,24.60
2022-11-29T11:09:21.634Z,24.13
2022-11-29T11:11:58.786Z,24.23
2022-11-29T11:14:30.383Z,23.45
2022-11-29T11:17:17.485Z,26.33
2022-11-29T11:19:57.640Z,25.73
2022-11-29T11:22:27.956Z,26.92
2022-11-29T11:25:03.249Z,26.13
2022-11-29T11:27:38.574Z,24.67
2022-11-29T11:30:10.608Z,27.70
2022-11-29T11:32:40.210Z,24.52
2022-11-29T11:35:24.802Z,25.20
2022-11-29T11:37:59.666Z,25.40
2022-11-29T11:40:31.250Z,25.75
2022-11-29T11:43:04.990Z,24.20
2022-11-29T11:45:38.614Z,23.67
2022-11-29T11:48:15.039Z,24.48
2022-11-29T11:50:47.299Z,24.98
2022-11-29T11:53:25.358Z,25.38
2022-11-29T11:56:01.378Z,25.17
2022-11-29T11:58:35.648Z,27.23
2022-11-29T12:01:19.161Z,26.70
2022-11-29T12:03:53.668Z,26.03
2022-11-29T12:06:39.645Z,27.23
2022-11-29T12:09:18.743Z,25.95
2022-11-29T12:11:54.279Z,27.60
2022-11-29T12:14:34.104Z,27.98
2022-11-29T12:17:14.285Z,26.80
2022-11-29T12:19:55.572Z,25.10
2022-11-29T12:22:28.097Z,24.85
2022-11-29T12:25:01.058Z,23.75
2022-11-29T12:27:30.772Z,23.25
2022-11-29T12:30:03.175Z,24.02
2022-11-29T12:32:49.756Z,23.23
2022-11-29T12:35:42.966Z,23.52
2022-11-29T12:38:23.532Z,22.58
2022-11-29T12:40:57.683Z,24.42
2022-11-29T12:46:06.899Z,23.73
2022-11-29T12:48:40.999Z,23.95
2022-11-29T12:51:16.867Z,24.60
2022-11-29T12:53:55.232Z,25.30
2022-11-29T12:56:29.593Z,23.92
2022-11-29T12:59:07.204Z,24.02
2022-11-29T13:01:53.845Z,23.92
2022-11-29T13:04:26.803Z,24.65
2022-11-29T13:07:00.294Z,23.52
2022-11-29T13:09:49.935Z,24.60
2022-11-29T13:12:23.413Z,23.67
2022-11-29T13:14:58.409Z,22.60
2022-11-29T13:17:40.369Z,22.40
2022-11-29T13:20:30.590Z,23.05
2022-11-29T13:23:07.221Z,21.25
2022-11-29T13:25:39.773Z,22.23
2022-11-29T13:28:14.364Z,22.67
2022-11-29T13:30:44.089Z,21.45
2022-11-29T13:33:23.273Z,22.48
2022-11-29T13:35:59.553Z,22.30
2022-11-29T13:38:34.443Z,22.63
2022-11-29T13:41:10.139Z,22.40
2022-11-29T13:43:42.484Z,21.67
2022-11-29T13:46:19.740Z,22.30
2022-11-29T13:48:54.281Z,22.15
2022-11-29T13:51:26.779Z,21.88
2022-11-29T13:53:57.116Z,22.33
2022-11-29T13:56:32.744Z,22.20
2022-11-29T13:59:03.619Z,22.73
2022-11-29T14:01:46.520Z,21.38
2022-11-29T14:04:27.498Z,20.25
2022-11-29T14:07:08.846Z,19.33
2022-11-29T14:09:44.925Z,19.70
2022-11-29T14:12:28.185Z,19.98
2022-11-29T14:15:01.479Z,20.55
2022-11-29T14:17:37.275Z,19.85
2022-11-29T14:20:54.517Z,20.20
2022-11-29T14:23:41.011Z,19.80
2022-11-29T14:26:28.522Z,18.98
2022-11-29T14:28:58.658Z,20.27
2022-11-29T14:31:53.387Z,20.27
2022-11-29T14:37:11.682Z,20.33
2022-11-29T14:39:49.548Z,20.85
2022-11-29T14:42:21.161Z,20.55
2022-11-29T14:44:53.715Z,20.05
2022-11-29T14:47:29.946Z,20.95
2022-11-29T14:50:00.893Z,21.63
2022-11-29T14:52:33.006Z,20.38
2022-11-29T14:55:08.009Z,21.08
2022-11-29T14:58:16.220Z,19.77
2022-11-29T15:01:02.703Z,21.23
2022-11-29T15:03:37.546Z,22.00
2022-11-29T15:06:17.908Z,22.05
2022-11-29T15:08:52.889Z,21.40
2022-11-29T15:11:34.707Z,21.98
2022-11-29T15:14:08.317Z,21.40
2022-11-29T15:16:57.760Z,21.95
2022-11-29T15:19:49.166Z,21.48
2022-11-29T15:22:20.672Z,22.85
2022-11-29T15:24:55.287Z,22.55
2022-11-29T15:27:27.586Z,23.50
2022-11-29T15:29:58.939Z,23.38
2022-11-29T15:32:31.341Z,22.92
2022-11-29T15:35:01.532Z,21.83
2022-11-29T15:37:44.547Z,23.35
2022-11-29T15:40:17.198Z,22.98
2022-11-29T15:42:51.425Z,24.17
2022-11-29T15:45:29.869Z,23.90
2022-11-29T15:48:15.110Z,26.25
2022-11-29T15:50:48.661Z,24.80
2022-11-29T15:53:22.714Z,24.50
2022-11-29T15:58:24.497Z,26.40
2022-11-29T16:00:54.960Z,25.83
2022-11-29T16:03:29.077Z,26.83
2022-11-29T16:06:04.108Z,25.63
2022-11-29T16:08:37.400Z,25.05
2022-11-29T16:11:08.605Z,25.33
2022-11-29T16:13:43.154Z,24.52
2022-11-29T16:16:20.496Z,24.55
2022-11-29T16:18:54.766Z,24.92
2022-11-29T16:23:56.304Z,27.48
2022-11-29T16:26:27.140Z,25.13
2022-11-29T16:29:00.104Z,25.70
2022-11-29T16:31:34.958Z,26.23
2022-11-29T16:34:10.332Z,27.33
2022-11-29T16:36:40.091Z,26.98
2022-11-29T16:39:10.991Z,25.38
2022-11-29T16:41:41.615Z,27.17
2022-11-29T16:44:45.513Z,28.25
2022-11-29T16:47:19.102Z,28.27
2022-11-29T16:49:49.132Z,28.35
2022-11-29T16:52:27.093Z,30.10
2022-11-29T16:54:56.773Z,30.20
2022-11-29T16:57:26.640Z,30.20
2022-11-29T16:59:58.920Z,30.25
2022-11-29T17:02:31.725Z,31.77
2022-11-29T17:05:01.387Z,30.15
2022-11-29T17:07:32.728Z,36.67
2022-11-29T17:10:02.771Z,29.88
2022-11-29T17:12:32.641Z,32.05
2022-11-29T17:15:04.863Z,30.15
2022-11-29T17:17:34.497Z,31.92
2022-11-29T17:20:04.110Z,31.63
2022-11-29T17:22:33.683Z,29.20
2022-11-29T17:25:03.339Z,29.00
2022-11-29T17:27:33.172Z,28.42
2022-11-29T17:30:06.034Z,28.20
2022-11-29T17:32:36.605Z,29.30
2022-11-29T17:35:06.444Z,29.95
2022-11-29T17:37:36.025Z,30.38
2022-11-29T17:40:05.617Z,28.90
2022-11-29T17:42:35.276Z,27.77
2022-11-29T17:45:07.958Z,28.35
2022-11-29T17:47:37.551Z,28.42
2022-11-29T17:50:08.461Z,29.80
2022-11-29T17:52:39.227Z,29.40
2022-11-29T17:55:10.297Z,31.48
2022-11-29T17:57:39.957Z,37.75
2022-11-29T18:00:15.418Z,29.48
2022-11-29T18:02:45.059Z,28.52
2022-11-29T18:05:14.689Z,27.40
2022-11-29T18:07:58.055Z,27.83
2022-11-29T18:10:28.540Z,27.43
2022-11-29T18:12:58.156Z,27.13
2022-11-29T18:15:30.352Z,26.20
2022-11-29T18:17:59.897Z,26.73
2022-11-29T18:20:29.503Z,31.80
2022-11-29T18:23:01.427Z,27.63
2022-11-29T18:25:39.553Z,28.63
2022-11-29T18:28:11.340Z,27.48
2022-11-29T18:30:43.562Z,30.45
2022-11-29T18:33:13.156Z,29.92
2022-11-29T18:35:42.791Z,33.05
2022-11-29T18:38:15.720Z,31.02
2022-11-29T18:40:48.370Z,31.95
2022-11-29T18:43:19.478Z,37.22
2022-11-29T18:45:51.793Z,35.40
2022-11-29T18:48:21.384Z,32.60
2022-11-29T18:50:51.025Z,31.25
2022-11-29T18:53:20.625Z,32.85
2022-11-29T18:55:50.223Z,31.50
2022-11-29T18:58:20.069Z,31.60
2022-11-29T19:00:52.348Z,30.85
2022-11-29T19:03:21.994Z,31.63
2022-11-29T19:05:55.090Z,32.78
2022-11-29T19:08:25.563Z,29.20
2022-11-29T19:10:55.296Z,30.23
2022-11-29T19:13:24.956Z,33.58
2022-11-29T19:15:58.215Z,32.42
2022-11-29T19:18:27.878Z,30.27
2022-11-29T19:21:06.353Z,29.75
2022-11-29T19:23:36.031Z,30.48
2022-11-29T19:26:06.519Z,27.92
2022-11-29T19:28:38.279Z,26.65
2022-11-29T19:31:11.110Z,25.15
2022-11-29T19:33:44.863Z,25.48
2022-11-29T19:36:15.907Z,23.85
2022-11-29T19:38:50.244Z,28.45
2022-11-29T19:41:24.809Z,29.67
2022-11-29T19:43:54.558Z,26.83
2022-11-29T19:46:28.383Z,28.35
2022-11-29T19:48:59.517Z,27.63
2022-11-29T19:51:30.252Z,25.23
2022-11-29T19:54:01.590Z,27.05
2022-11-29T19:56:32.193Z,24.05
2022-11-29T19:59:02.743Z,23.65
2022-11-29T20:01:40.880Z,22.63
2022-11-29T20:04:11.780Z,23.20
2022-11-29T20:06:41.554Z,23.60
2022-11-29T20:09:11.300Z,22.83
2022-11-29T20:11:41.092Z,22.33
2022-11-29T20:14:11.542Z,22.77
2022-11-29T20:16:44.493Z,22.17
2022-11-29T20:19:16.228Z,24.48
2022-11-29T20:21:47.796Z,21.70
2022-11-29T20:24:19.388Z,21.98
2022-11-29T20:26:50.659Z,21.35
2022-11-29T20:29:21.868Z,22.65
2022-11-29T20:31:54.088Z,21.48
2022-11-29T20:34:23.940Z,21.65
2022-11-29T20:37:10.576Z,22.52
2022-11-29T20:39:46.568Z,22.08
2022-11-29T20:42:48.831Z,22.08
2022-11-29T20:45:19.598Z,21.73
2022-11-29T20:47:56.204Z,22.40
2022-11-29T20:50:28.679Z,21.58
2022-11-29T20:53:09.181Z,22.05
2022-11-29T20:55:44.891Z,21.95
2022-11-29T20:58:16.157Z,21.17
2022-11-29T21:00:45.942Z,23.45
2022-11-29T21:03:19.361Z,21.40
2022-11-29T21:05:49.451Z,21.70
2022-11-29T21:08:21.932Z,21.63
2022-11-29T21:10:53.266Z,22.10
2022-11-29T21:13:24.257Z,22.15
2022-11-29T21:15:54.907Z,22.98
2022-11-29T21:18:29.951Z,22.60
2022-11-29T21:21:06.425Z,22.35
2022-11-29T21:23:45.504Z,22.27
2022-11-29T21:26:18.719Z,23.25
2022-11-29T21:29:00.817Z,22.73
2022-11-29T21:31:31.113Z,22.65
2022-11-29T21:34:03.964Z,22.38
2022-11-29T21:36:33.859Z,23.17
2022-11-29T21:39:05.263Z,23.08
2022-11-29T21:41:35.283Z,22.33
2022-11-29T21:44:07.070Z,22.38
2022-11-29T21:46:37.601Z,22.35
2022-11-29T21:49:10.413Z,22.75
2022-11-29T21:51:40.021Z,22.15
2022-11-29T21:54:09.650Z,23.27
2022-11-29T21:56:39.232Z,22.55
2022-11-29T21:59:08.846Z,21.50
2022-11-29T22:01:38.674Z,22.73
2022-11-29T22:04:11.064Z,22.70
2022-11-29T22:06:40.963Z,23.13
2022-11-29T22:09:10.690Z,22.48
2022-11-29T22:11:40.274Z,23.75
2022-11-29T22:14:18.369Z,24.25
2022-11-29T22:16:49.971Z,24.13
2022-11-29T22:19:23.371Z,23.88
2022-11-29T22:21:54.179Z,25.05
2022-11-29T22:24:26.312Z,24.17
2022-11-29T22:26:56.255Z,24.85
2022-11-29T22:29:26.711Z,26.73
2022-11-29T22:31:59.293Z,36.95
2022-11-29T22:34:31.611Z,26.92
2022-11-29T22:37:01.183Z,28.55
2022-11-29T22:39:30.753Z,28.88
2022-11-29T22:42:00.313Z,29.52
2022-11-29T22:44:30.348Z,30.92
2022-11-29T22:47:00.029Z,28.67
2022-11-29T22:49:33.343Z,29.30
2022-11-29T22:52:03.052Z,31.17
2022-11-29T22:54:32.711Z,29.08
2022-11-29T22:57:02.333Z,30.48
2022-11-29T22:59:31.957Z,29.83
2022-11-29T23:02:01.549Z,28.85
2022-11-29T23:04:33.760Z,29.40
2022-11-29T23:07:04.507Z,28.73
2022-11-29T23:09:34.123Z,31.35
2022-11-29T23:12:03.757Z,32.70
2022-11-29T23:14:33.452Z,31.35
2022-11-29T23:17:03.044Z,30.92
2022-11-29T23:19:35.229Z,31.48
2022-11-29T23:22:04.841Z,31.85
2022-11-29T23:24:34.407Z,31.38
2022-11-29T23:27:04.941Z,31.67
2022-11-29T23:29:34.543Z,29.98
2022-11-29T23:32:04.152Z,31.08
2022-11-29T23:34:36.362Z,31.67
2022-11-29T23:37:05.953Z,32.10
2022-11-29T23:39:35.575Z,32.05
2022-11-29T23:42:05.373Z,31.25
2022-11-29T23:44:35.080Z,32.45
2022-11-29T23:47:04.692Z,31.63
2022-11-29T23:49:39.858Z,32.90
2022-11-29T23:52:09.482Z,32.17
2022-11-29T23:54:39.086Z,32.28
2022-11-29T23:57:08.658Z,33.00
2022-11-29T23:59:38.455Z,34.05
